sensor_id;sensor_type;location;lat;lon;timestamp;P1;durP1;ratioP1;P2;durP2;ratioP2
12445;SDS011;6287;50.984;7.022;2023-04-24T00:01:06;0.50;;;0.50;;
12445;SDS011;6287;50.984;7.022;2023-04-24T00:03:37;0.70;;;0.70;;
12445;SDS011;6287;50.984;7.022;2023-04-24T00:06:08;0.57;;;0.57;;
12445;SDS011;6287;50.984;7.022;2023-04-24T00:08:34;0.50;;;0.50;;
12445;SDS011;6287;50.984;7.022;2023-04-24T00:11:02;0.50;;;0.50;;
12445;SDS011;6287;50.984;7.022;2023-04-24T00:13:30;0.70;;;0.70;;
12445;SDS011;6287;50.984;7.022;2023-04-24T00:15:57;0.60;;;0.60;;
12445;SDS011;6287;50.984;7.022;2023-04-24T00:18:22;0.93;;;0.70;;
12445;SDS011;6287;50.984;7.022;2023-04-24T00:20:48;0.50;;;0.50;;
12445;SDS011;6287;50.984;7.022;2023-04-24T00:23:18;1.13;;;0.70;;
12445;SDS011;6287;50.984;7.022;2023-04-24T00:25:44;0.60;;;0.60;;
12445;SDS011;6287;50.984;7.022;2023-04-24T00:28:10;0.70;;;0.70;;
12445;SDS011;6287;50.984;7.022;2023-04-24T00:30:38;0.63;;;0.63;;
12445;SDS011;6287;50.984;7.022;2023-04-24T00:33:06;0.60;;;0.60;;
12445;SDS011;6287;50.984;7.022;2023-04-24T00:35:33;0.80;;;0.60;;
12445;SDS011;6287;50.984;7.022;2023-04-24T00:38:03;0.70;;;0.70;;
12445;SDS011;6287;50.984;7.022;2023-04-24T00:40:28;0.60;;;0.60;;
12445;SDS011;6287;50.984;7.022;2023-04-24T00:42:54;0.80;;;0.80;;
12445;SDS011;6287;50.984;7.022;2023-04-24T00:45:21;0.50;;;0.50;;
12445;SDS011;6287;50.984;7.022;2023-04-24T00:47:46;0.87;;;0.87;;
12445;SDS011;6287;50.984;7.022;2023-04-24T00:50:14;0.60;;;0.60;;
12445;SDS011;6287;50.984;7.022;2023-04-24T00:52:40;0.70;;;0.70;;
12445;SDS011;6287;50.984;7.022;2023-04-24T00:55:07;0.77;;;0.77;;
12445;SDS011;6287;50.984;7.022;2023-04-24T00:57:33;0.63;;;0.57;;
12445;SDS011;6287;50.984;7.022;2023-04-24T01:00:02;0.87;;;0.87;;
12445;SDS011;6287;50.984;7.022;2023-04-24T01:02:30;0.67;;;0.67;;
12445;SDS011;6287;50.984;7.022;2023-04-24T01:05:01;0.60;;;0.60;;
12445;SDS011;6287;50.984;7.022;2023-04-24T01:07:31;0.80;;;0.80;;
12445;SDS011;6287;50.984;7.022;2023-04-24T01:09:57;0.70;;;0.70;;
12445;SDS011;6287;50.984;7.022;2023-04-24T01:12:22;0.73;;;0.73;;
12445;SDS011;6287;50.984;7.022;2023-04-24T01:14:49;0.87;;;0.63;;
12445;SDS011;6287;50.984;7.022;2023-04-24T01:17:16;0.90;;;0.90;;
12445;SDS011;6287;50.984;7.022;2023-04-24T01:19:41;1.10;;;1.00;;
12445;SDS011;6287;50.984;7.022;2023-04-24T01:22:13;5.23;;;1.03;;
12445;SDS011;6287;50.984;7.022;2023-04-24T01:24:39;1.67;;;0.93;;
12445;SDS011;6287;50.984;7.022;2023-04-24T01:27:08;0.60;;;0.60;;
12445;SDS011;6287;50.984;7.022;2023-04-24T01:29:37;0.97;;;0.80;;
12445;SDS011;6287;50.984;7.022;2023-04-24T01:32:12;1.33;;;0.70;;
12445;SDS011;6287;50.984;7.022;2023-04-24T01:34:40;1.03;;;1.03;;
12445;SDS011;6287;50.984;7.022;2023-04-24T01:37:09;1.20;;;0.87;;
12445;SDS011;6287;50.984;7.022;2023-04-24T01:39:37;1.03;;;1.00;;
12445;SDS011;6287;50.984;7.022;2023-04-24T01:42:06;1.43;;;1.30;;
12445;SDS011;6287;50.984;7.022;2023-04-24T01:44:33;2.10;;;1.90;;
12445;SDS011;6287;50.984;7.022;2023-04-24T01:47:00;2.03;;;1.80;;
12445;SDS011;6287;50.984;7.022;2023-04-24T01:49:28;3.77;;;2.00;;
12445;SDS011;6287;50.984;7.022;2023-04-24T01:51:56;1.70;;;1.60;;
12445;SDS011;6287;50.984;7.022;2023-04-24T01:54:24;2.27;;;2.07;;
12445;SDS011;6287;50.984;7.022;2023-04-24T01:56:52;2.60;;;1.77;;
12445;SDS011;6287;50.984;7.022;2023-04-24T01:59:20;2.07;;;1.90;;
12445;SDS011;6287;50.984;7.022;2023-04-24T02:01:48;2.50;;;1.60;;
12445;SDS011;6287;50.984;7.022;2023-04-24T02:04:13;2.33;;;2.00;;
12445;SDS011;6287;50.984;7.022;2023-04-24T02:06:40;2.20;;;2.10;;
12445;SDS011;6287;50.984;7.022;2023-04-24T02:09:06;4.30;;;2.10;;
12445;SDS011;6287;50.984;7.022;2023-04-24T02:11:34;2.10;;;1.90;;
12445;SDS011;6287;50.984;7.022;2023-04-24T02:14:02;2.13;;;1.93;;
12445;SDS011;6287;50.984;7.022;2023-04-24T02:16:28;2.10;;;1.90;;
12445;SDS011;6287;50.984;7.022;2023-04-24T02:19:01;2.80;;;2.27;;
12445;SDS011;6287;50.984;7.022;2023-04-24T02:21:27;2.47;;;2.27;;
12445;SDS011;6287;50.984;7.022;2023-04-24T02:23:54;2.37;;;2.10;;
12445;SDS011;6287;50.984;7.022;2023-04-24T02:26:19;2.73;;;2.33;;
12445;SDS011;6287;50.984;7.022;2023-04-24T02:28:46;3.57;;;2.73;;
12445;SDS011;6287;50.984;7.022;2023-04-24T02:31:14;2.77;;;2.43;;
12445;SDS011;6287;50.984;7.022;2023-04-24T02:33:40;2.90;;;2.50;;
12445;SDS011;6287;50.984;7.022;2023-04-24T02:36:11;2.90;;;2.70;;
12445;SDS011;6287;50.984;7.022;2023-04-24T02:38:39;2.67;;;2.40;;
12445;SDS011;6287;50.984;7.022;2023-04-24T02:41:04;3.43;;;3.13;;
12445;SDS011;6287;50.984;7.022;2023-04-24T02:43:31;4.27;;;3.00;;
12445;SDS011;6287;50.984;7.022;2023-04-24T02:45:59;2.87;;;2.33;;
12445;SDS011;6287;50.984;7.022;2023-04-24T02:48:24;3.00;;;2.70;;
12445;SDS011;6287;50.984;7.022;2023-04-24T02:50:53;2.90;;;2.67;;
12445;SDS011;6287;50.984;7.022;2023-04-24T02:53:23;3.77;;;2.73;;
12445;SDS011;6287;50.984;7.022;2023-04-24T02:55:51;5.53;;;3.00;;
12445;SDS011;6287;50.984;7.022;2023-04-24T02:58:19;3.27;;;2.97;;
12445;SDS011;6287;50.984;7.022;2023-04-24T03:00:45;4.37;;;2.93;;
12445;SDS011;6287;50.984;7.022;2023-04-24T03:03:12;3.57;;;2.93;;
12445;SDS011;6287;50.984;7.022;2023-04-24T03:05:37;3.13;;;2.87;;
12445;SDS011;6287;50.984;7.022;2023-04-24T03:08:06;3.00;;;2.43;;
12445;SDS011;6287;50.984;7.022;2023-04-24T03:10:34;3.90;;;3.23;;
12445;SDS011;6287;50.984;7.022;2023-04-24T03:13:00;5.13;;;3.77;;
12445;SDS011;6287;50.984;7.022;2023-04-24T03:15:26;4.67;;;3.40;;
12445;SDS011;6287;50.984;7.022;2023-04-24T03:17:54;3.90;;;3.50;;
12445;SDS011;6287;50.984;7.022;2023-04-24T03:20:20;3.80;;;3.43;;
12445;SDS011;6287;50.984;7.022;2023-04-24T03:22:46;4.43;;;3.30;;
12445;SDS011;6287;50.984;7.022;2023-04-24T03:25:11;4.80;;;3.43;;
12445;SDS011;6287;50.984;7.022;2023-04-24T03:27:39;4.87;;;3.67;;
12445;SDS011;6287;50.984;7.022;2023-04-24T03:30:07;4.40;;;3.80;;
12445;SDS011;6287;50.984;7.022;2023-04-24T03:32:36;3.83;;;3.37;;
12445;SDS011;6287;50.984;7.022;2023-04-24T03:35:04;4.33;;;3.57;;
12445;SDS011;6287;50.984;7.022;2023-04-24T03:37:33;5.23;;;3.87;;
12445;SDS011;6287;50.984;7.022;2023-04-24T03:40:01;4.10;;;3.70;;
12445;SDS011;6287;50.984;7.022;2023-04-24T03:42:28;5.83;;;3.70;;
12445;SDS011;6287;50.984;7.022;2023-04-24T03:44:53;4.00;;;3.47;;
12445;SDS011;6287;50.984;7.022;2023-04-24T03:47:19;4.60;;;3.30;;
12445;SDS011;6287;50.984;7.022;2023-04-24T03:49:45;6.47;;;3.60;;
12445;SDS011;6287;50.984;7.022;2023-04-24T03:52:10;4.17;;;3.63;;
12445;SDS011;6287;50.984;7.022;2023-04-24T03:54:36;4.80;;;3.80;;
12445;SDS011;6287;50.984;7.022;2023-04-24T03:57:01;4.70;;;3.40;;
12445;SDS011;6287;50.984;7.022;2023-04-24T03:59:30;4.90;;;3.37;;
12445;SDS011;6287;50.984;7.022;2023-04-24T04:01:55;4.53;;;3.83;;
12445;SDS011;6287;50.984;7.022;2023-04-24T04:04:21;6.23;;;3.90;;
12445;SDS011;6287;50.984;7.022;2023-04-24T04:06:46;5.53;;;3.80;;
12445;SDS011;6287;50.984;7.022;2023-04-24T04:09:18;5.20;;;3.57;;
12445;SDS011;6287;50.984;7.022;2023-04-24T04:11:43;3.80;;;3.33;;
12445;SDS011;6287;50.984;7.022;2023-04-24T04:14:09;4.10;;;3.70;;
12445;SDS011;6287;50.984;7.022;2023-04-24T04:16:34;4.87;;;3.50;;
12445;SDS011;6287;50.984;7.022;2023-04-24T04:19:01;4.20;;;3.27;;
12445;SDS011;6287;50.984;7.022;2023-04-24T04:21:28;3.60;;;3.10;;
12445;SDS011;6287;50.984;7.022;2023-04-24T04:23:56;6.17;;;3.67;;
12445;SDS011;6287;50.984;7.022;2023-04-24T04:26:24;5.37;;;3.27;;
12445;SDS011;6287;50.984;7.022;2023-04-24T04:28:50;3.67;;;3.20;;
12445;SDS011;6287;50.984;7.022;2023-04-24T04:31:16;4.33;;;3.53;;
12445;SDS011;6287;50.984;7.022;2023-04-24T04:33:44;4.13;;;3.70;;
12445;SDS011;6287;50.984;7.022;2023-04-24T04:36:10;4.43;;;3.37;;
12445;SDS011;6287;50.984;7.022;2023-04-24T04:38:37;4.13;;;2.63;;
12445;SDS011;6287;50.984;7.022;2023-04-24T04:41:05;4.10;;;2.83;;
12445;SDS011;6287;50.984;7.022;2023-04-24T04:43:33;3.60;;;3.10;;
12445;SDS011;6287;50.984;7.022;2023-04-24T04:45:59;4.50;;;3.40;;
12445;SDS011;6287;50.984;7.022;2023-04-24T04:48:26;3.90;;;2.77;;
12445;SDS011;6287;50.984;7.022;2023-04-24T04:50:52;4.93;;;3.47;;
12445;SDS011;6287;50.984;7.022;2023-04-24T04:53:22;3.47;;;3.10;;
12445;SDS011;6287;50.984;7.022;2023-04-24T04:55:49;4.27;;;3.13;;
12445;SDS011;6287;50.984;7.022;2023-04-24T04:58:17;4.27;;;2.93;;
12445;SDS011;6287;50.984;7.022;2023-04-24T05:00:45;4.67;;;3.30;;
12445;SDS011;6287;50.984;7.022;2023-04-24T05:03:11;3.70;;;2.87;;
12445;SDS011;6287;50.984;7.022;2023-04-24T05:05:36;3.63;;;3.07;;
12445;SDS011;6287;50.984;7.022;2023-04-24T05:08:10;5.43;;;3.57;;
12445;SDS011;6287;50.984;7.022;2023-04-24T05:10:37;4.10;;;2.87;;
12445;SDS011;6287;50.984;7.022;2023-04-24T05:13:03;5.60;;;2.90;;
12445;SDS011;6287;50.984;7.022;2023-04-24T05:15:33;4.10;;;3.10;;
12445;SDS011;6287;50.984;7.022;2023-04-24T05:18:01;3.57;;;3.00;;
12445;SDS011;6287;50.984;7.022;2023-04-24T05:20:29;3.47;;;3.00;;
12445;SDS011;6287;50.984;7.022;2023-04-24T05:22:57;3.13;;;2.83;;
12445;SDS011;6287;50.984;7.022;2023-04-24T05:25:25;4.00;;;3.37;;
12445;SDS011;6287;50.984;7.022;2023-04-24T05:27:53;3.63;;;3.10;;
12445;SDS011;6287;50.984;7.022;2023-04-24T05:30:21;5.27;;;3.43;;
12445;SDS011;6287;50.984;7.022;2023-04-24T05:32:47;3.20;;;2.90;;
12445;SDS011;6287;50.984;7.022;2023-04-24T05:35:15;3.27;;;2.97;;
12445;SDS011;6287;50.984;7.022;2023-04-24T05:37:46;3.60;;;3.13;;
12445;SDS011;6287;50.984;7.022;2023-04-24T05:40:14;3.73;;;3.20;;
12445;SDS011;6287;50.984;7.022;2023-04-24T05:42:42;6.30;;;3.57;;
12445;SDS011;6287;50.984;7.022;2023-04-24T05:45:08;5.30;;;2.93;;
12445;SDS011;6287;50.984;7.022;2023-04-24T05:47:36;4.40;;;3.40;;
12445;SDS011;6287;50.984;7.022;2023-04-24T05:50:04;3.17;;;2.97;;
12445;SDS011;6287;50.984;7.022;2023-04-24T05:52:33;6.77;;;3.87;;
12445;SDS011;6287;50.984;7.022;2023-04-24T05:55:01;6.90;;;3.50;;
12445;SDS011;6287;50.984;7.022;2023-04-24T05:57:27;5.83;;;3.80;;
12445;SDS011;6287;50.984;7.022;2023-04-24T05:59:52;4.77;;;3.60;;
12445;SDS011;6287;50.984;7.022;2023-04-24T06:02:18;5.20;;;3.30;;
12445;SDS011;6287;50.984;7.022;2023-04-24T06:04:44;5.67;;;3.80;;
12445;SDS011;6287;50.984;7.022;2023-04-24T06:07:15;6.97;;;4.07;;
12445;SDS011;6287;50.984;7.022;2023-04-24T06:09:43;5.57;;;3.80;;
12445;SDS011;6287;50.984;7.022;2023-04-24T06:12:15;5.33;;;3.97;;
12445;SDS011;6287;50.984;7.022;2023-04-24T06:14:44;6.07;;;4.00;;
12445;SDS011;6287;50.984;7.022;2023-04-24T06:17:12;4.57;;;3.40;;
12445;SDS011;6287;50.984;7.022;2023-04-24T06:19:37;3.53;;;3.10;;
12445;SDS011;6287;50.984;7.022;2023-04-24T06:22:05;7.13;;;4.07;;
12445;SDS011;6287;50.984;7.022;2023-04-24T06:24:31;4.10;;;2.77;;
12445;SDS011;6287;50.984;7.022;2023-04-24T06:26:58;5.43;;;3.73;;
12445;SDS011;6287;50.984;7.022;2023-04-24T06:29:26;4.73;;;3.63;;
12445;SDS011;6287;50.984;7.022;2023-04-24T06:31:52;3.90;;;3.13;;
12445;SDS011;6287;50.984;7.022;2023-04-24T06:34:20;3.87;;;3.20;;
12445;SDS011;6287;50.984;7.022;2023-04-24T06:36:46;3.50;;;3.20;;
12445;SDS011;6287;50.984;7.022;2023-04-24T06:39:14;4.27;;;2.97;;
12445;SDS011;6287;50.984;7.022;2023-04-24T06:41:40;2.87;;;2.20;;
12445;SDS011;6287;50.984;7.022;2023-04-24T06:44:08;3.40;;;2.53;;
12445;SDS011;6287;50.984;7.022;2023-04-24T06:46:35;2.30;;;2.10;;
12445;SDS011;6287;50.984;7.022;2023-04-24T06:49:01;2.20;;;2.10;;
12445;SDS011;6287;50.984;7.022;2023-04-24T06:51:29;1.30;;;1.20;;
12445;SDS011;6287;50.984;7.022;2023-04-24T06:53:55;1.30;;;1.20;;
12445;SDS011;6287;50.984;7.022;2023-04-24T06:56:28;2.17;;;1.30;;
12445;SDS011;6287;50.984;7.022;2023-04-24T06:58:54;1.23;;;1.03;;
12445;SDS011;6287;50.984;7.022;2023-04-24T07:01:20;1.27;;;1.27;;
12445;SDS011;6287;50.984;7.022;2023-04-24T07:03:46;1.17;;;1.17;;
12445;SDS011;6287;50.984;7.022;2023-04-24T07:06:11;1.40;;;1.30;;
12445;SDS011;6287;50.984;7.022;2023-04-24T07:08:37;1.33;;;1.23;;
12445;SDS011;6287;50.984;7.022;2023-04-24T07:11:03;1.80;;;1.03;;
12445;SDS011;6287;50.984;7.022;2023-04-24T07:13:29;1.90;;;1.40;;
12445;SDS011;6287;50.984;7.022;2023-04-24T07:15:55;1.33;;;1.23;;
12445;SDS011;6287;50.984;7.022;2023-04-24T07:18:21;1.40;;;1.30;;
12445;SDS011;6287;50.984;7.022;2023-04-24T07:20:47;1.70;;;1.60;;
12445;SDS011;6287;50.984;7.022;2023-04-24T07:23:15;5.33;;;1.47;;
12445;SDS011;6287;50.984;7.022;2023-04-24T07:25:43;1.60;;;1.40;;
12445;SDS011;6287;50.984;7.022;2023-04-24T07:28:11;1.93;;;1.47;;
12445;SDS011;6287;50.984;7.022;2023-04-24T07:30:40;2.07;;;1.57;;
12445;SDS011;6287;50.984;7.022;2023-04-24T07:33:11;2.40;;;1.60;;
12445;SDS011;6287;50.984;7.022;2023-04-24T07:35:38;1.50;;;1.40;;
12445;SDS011;6287;50.984;7.022;2023-04-24T07:38:06;1.40;;;1.27;;
12445;SDS011;6287;50.984;7.022;2023-04-24T07:40:37;1.30;;;1.20;;
12445;SDS011;6287;50.984;7.022;2023-04-24T07:43:02;1.50;;;1.40;;
12445;SDS011;6287;50.984;7.022;2023-04-24T07:45:30;1.10;;;1.10;;
12445;SDS011;6287;50.984;7.022;2023-04-24T07:48:02;1.30;;;1.30;;
12445;SDS011;6287;50.984;7.022;2023-04-24T07:50:30;1.40;;;1.30;;
12445;SDS011;6287;50.984;7.022;2023-04-24T07:52:56;0.70;;;0.70;;
12445;SDS011;6287;50.984;7.022;2023-04-24T07:55:24;1.33;;;0.87;;
12445;SDS011;6287;50.984;7.022;2023-04-24T07:57:49;1.77;;;0.90;;
12445;SDS011;6287;50.984;7.022;2023-04-24T08:00:16;1.17;;;0.97;;
12445;SDS011;6287;50.984;7.022;2023-04-24T08:02:44;1.43;;;0.80;;
12445;SDS011;6287;50.984;7.022;2023-04-24T08:05:15;0.80;;;0.80;;
12445;SDS011;6287;50.984;7.022;2023-04-24T08:07:45;1.00;;;1.00;;
12445;SDS011;6287;50.984;7.022;2023-04-24T08:10:17;0.87;;;0.83;;
12445;SDS011;6287;50.984;7.022;2023-04-24T08:12:45;0.70;;;0.70;;
12445;SDS011;6287;50.984;7.022;2023-04-24T08:15:11;1.00;;;0.90;;
12445;SDS011;6287;50.984;7.022;2023-04-24T08:17:36;0.80;;;0.80;;
12445;SDS011;6287;50.984;7.022;2023-04-24T08:20:02;1.10;;;0.77;;
12445;SDS011;6287;50.984;7.022;2023-04-24T08:22:30;1.60;;;0.80;;
12445;SDS011;6287;50.984;7.022;2023-04-24T08:24:56;1.10;;;1.00;;
12445;SDS011;6287;50.984;7.022;2023-04-24T08:27:27;0.80;;;0.80;;
12445;SDS011;6287;50.984;7.022;2023-04-24T08:29:57;0.93;;;0.90;;
12445;SDS011;6287;50.984;7.022;2023-04-24T08:32:25;0.80;;;0.80;;
12445;SDS011;6287;50.984;7.022;2023-04-24T08:34:54;0.90;;;0.87;;
12445;SDS011;6287;50.984;7.022;2023-04-24T08:37:23;1.03;;;1.00;;
12445;SDS011;6287;50.984;7.022;2023-04-24T08:39:49;0.90;;;0.90;;
12445;SDS011;6287;50.984;7.022;2023-04-24T08:42:15;0.90;;;0.90;;
12445;SDS011;6287;50.984;7.022;2023-04-24T08:44:43;0.97;;;0.90;;
12445;SDS011;6287;50.984;7.022;2023-04-24T08:47:14;0.83;;;0.67;;
12445;SDS011;6287;50.984;7.022;2023-04-24T08:49:42;1.10;;;1.00;;
12445;SDS011;6287;50.984;7.022;2023-04-24T08:52:08;0.87;;;0.87;;
12445;SDS011;6287;50.984;7.022;2023-04-24T08:54:36;1.00;;;1.00;;
12445;SDS011;6287;50.984;7.022;2023-04-24T08:57:06;1.63;;;1.20;;
12445;SDS011;6287;50.984;7.022;2023-04-24T08:59:34;1.70;;;1.30;;
12445;SDS011;6287;50.984;7.022;2023-04-24T09:02:00;1.53;;;1.30;;
12445;SDS011;6287;50.984;7.022;2023-04-24T09:04:31;1.57;;;1.47;;
12445;SDS011;6287;50.984;7.022;2023-04-24T09:06:58;2.50;;;1.50;;
12445;SDS011;6287;50.984;7.022;2023-04-24T09:09:25;1.43;;;1.33;;
12445;SDS011;6287;50.984;7.022;2023-04-24T09:11:51;2.70;;;1.80;;
12445;SDS011;6287;50.984;7.022;2023-04-24T09:14:20;1.73;;;1.63;;
12445;SDS011;6287;50.984;7.022;2023-04-24T09:16:50;2.67;;;2.10;;
12445;SDS011;6287;50.984;7.022;2023-04-24T09:19:18;2.07;;;1.87;;
12445;SDS011;6287;50.984;7.022;2023-04-24T09:21:47;2.87;;;2.33;;
12445;SDS011;6287;50.984;7.022;2023-04-24T09:24:16;2.10;;;2.00;;
12445;SDS011;6287;50.984;7.022;2023-04-24T09:26:55;2.33;;;2.13;;
12445;SDS011;6287;50.984;7.022;2023-04-24T09:29:26;3.47;;;2.70;;
12445;SDS011;6287;50.984;7.022;2023-04-24T09:31:52;3.10;;;2.10;;
12445;SDS011;6287;50.984;7.022;2023-04-24T09:34:24;3.27;;;2.47;;
12445;SDS011;6287;50.984;7.022;2023-04-24T09:36:51;5.07;;;2.60;;
12445;SDS011;6287;50.984;7.022;2023-04-24T09:39:18;3.10;;;2.80;;
12445;SDS011;6287;50.984;7.022;2023-04-24T09:41:56;4.20;;;2.87;;
12445;SDS011;6287;50.984;7.022;2023-04-24T09:44:28;4.50;;;3.00;;
12445;SDS011;6287;50.984;7.022;2023-04-24T09:46:58;3.00;;;2.70;;
12445;SDS011;6287;50.984;7.022;2023-04-24T09:52:04;7.50;;;2.97;;
12445;SDS011;6287;50.984;7.022;2023-04-24T09:54:34;4.93;;;3.23;;
12445;SDS011;6287;50.984;7.022;2023-04-24T09:57:03;3.67;;;3.00;;
12445;SDS011;6287;50.984;7.022;2023-04-24T09:59:29;4.07;;;3.10;;
12445;SDS011;6287;50.984;7.022;2023-04-24T10:01:58;3.77;;;3.40;;
12445;SDS011;6287;50.984;7.022;2023-04-24T10:04:25;5.87;;;3.60;;
12445;SDS011;6287;50.984;7.022;2023-04-24T10:06:56;5.50;;;3.87;;
12445;SDS011;6287;50.984;7.022;2023-04-24T10:09:23;8.97;;;4.37;;
12445;SDS011;6287;50.984;7.022;2023-04-24T10:11:51;6.73;;;4.20;;
12445;SDS011;6287;50.984;7.022;2023-04-24T10:14:22;7.37;;;4.40;;
12445;SDS011;6287;50.984;7.022;2023-04-24T10:16:52;8.23;;;4.47;;
12445;SDS011;6287;50.984;7.022;2023-04-24T10:19:21;5.07;;;3.63;;
12445;SDS011;6287;50.984;7.022;2023-04-24T10:21:50;6.83;;;3.37;;
12445;SDS011;6287;50.984;7.022;2023-04-24T10:24:20;4.53;;;3.20;;
12445;SDS011;6287;50.984;7.022;2023-04-24T10:26:46;5.37;;;3.83;;
12445;SDS011;6287;50.984;7.022;2023-04-24T10:29:16;4.67;;;3.53;;
12445;SDS011;6287;50.984;7.022;2023-04-24T10:31:46;6.27;;;3.53;;
12445;SDS011;6287;50.984;7.022;2023-04-24T10:34:13;5.13;;;3.10;;
12445;SDS011;6287;50.984;7.022;2023-04-24T10:36:42;5.40;;;3.17;;
12445;SDS011;6287;50.984;7.022;2023-04-24T10:39:13;3.70;;;3.23;;
12445;SDS011;6287;50.984;7.022;2023-04-24T10:41:42;5.93;;;2.87;;
12445;SDS011;6287;50.984;7.022;2023-04-24T10:44:09;3.93;;;2.87;;
12445;SDS011;6287;50.984;7.022;2023-04-24T10:46:36;4.47;;;2.83;;
12445;SDS011;6287;50.984;7.022;2023-04-24T10:49:06;5.37;;;2.70;;
12445;SDS011;6287;50.984;7.022;2023-04-24T10:51:48;6.33;;;2.50;;
12445;SDS011;6287;50.984;7.022;2023-04-24T10:57:10;2.80;;;2.20;;
12445;SDS011;6287;50.984;7.022;2023-04-24T10:59:48;5.07;;;2.10;;
12445;SDS011;6287;50.984;7.022;2023-04-24T11:02:18;4.53;;;2.67;;
12445;SDS011;6287;50.984;7.022;2023-04-24T11:05:02;2.60;;;2.40;;
12445;SDS011;6287;50.984;7.022;2023-04-24T11:07:28;3.93;;;2.43;;
12445;SDS011;6287;50.984;7.022;2023-04-24T11:10:00;4.07;;;2.27;;
12445;SDS011;6287;50.984;7.022;2023-04-24T11:12:26;4.23;;;2.20;;
12445;SDS011;6287;50.984;7.022;2023-04-24T11:22:33;5.73;;;1.90;;
12445;SDS011;6287;50.984;7.022;2023-04-24T11:25:01;3.93;;;2.30;;
12445;SDS011;6287;50.984;7.022;2023-04-24T11:27:30;3.20;;;1.70;;
12445;SDS011;6287;50.984;7.022;2023-04-24T11:30:00;2.13;;;1.77;;
12445;SDS011;6287;50.984;7.022;2023-04-24T11:32:33;4.30;;;2.13;;
12445;SDS011;6287;50.984;7.022;2023-04-24T11:40:05;4.97;;;2.30;;
12445;SDS011;6287;50.984;7.022;2023-04-24T11:42:44;6.23;;;2.50;;
12445;SDS011;6287;50.984;7.022;2023-04-24T11:45:12;4.57;;;2.43;;
12445;SDS011;6287;50.984;7.022;2023-04-24T11:47:42;5.57;;;2.33;;
12445;SDS011;6287;50.984;7.022;2023-04-24T11:50:10;3.03;;;2.20;;
12445;SDS011;6287;50.984;7.022;2023-04-24T11:52:37;5.57;;;2.50;;
12445;SDS011;6287;50.984;7.022;2023-04-24T11:55:06;8.67;;;2.53;;
12445;SDS011;6287;50.984;7.022;2023-04-24T11:57:35;3.43;;;2.20;;
12445;SDS011;6287;50.984;7.022;2023-04-24T12:00:14;6.47;;;2.40;;
12445;SDS011;6287;50.984;7.022;2023-04-24T12:02:43;7.57;;;2.83;;
12445;SDS011;6287;50.984;7.022;2023-04-24T12:05:21;5.93;;;2.30;;
12445;SDS011;6287;50.984;7.022;2023-04-24T12:07:53;8.53;;;2.40;;
12445;SDS011;6287;50.984;7.022;2023-04-24T12:10:19;4.97;;;2.60;;
12445;SDS011;6287;50.984;7.022;2023-04-24T12:12:46;4.73;;;2.57;;
12445;SDS011;6287;50.984;7.022;2023-04-24T12:15:12;4.67;;;2.63;;
12445;SDS011;6287;50.984;7.022;2023-04-24T12:17:41;4.70;;;3.00;;
12445;SDS011;6287;50.984;7.022;2023-04-24T12:20:09;3.80;;;2.47;;
12445;SDS011;6287;50.984;7.022;2023-04-24T12:22:49;3.47;;;2.67;;
12445;SDS011;6287;50.984;7.022;2023-04-24T12:25:20;4.97;;;2.77;;
12445;SDS011;6287;50.984;7.022;2023-04-24T12:30:33;5.47;;;3.10;;
12445;SDS011;6287;50.984;7.022;2023-04-24T12:33:02;4.43;;;3.03;;
12445;SDS011;6287;50.984;7.022;2023-04-24T12:35:32;5.53;;;3.00;;
12445;SDS011;6287;50.984;7.022;2023-04-24T12:38:21;5.20;;;2.90;;
12445;SDS011;6287;50.984;7.022;2023-04-24T12:40:58;4.63;;;2.80;;
12445;SDS011;6287;50.984;7.022;2023-04-24T12:43:35;3.97;;;2.87;;
12445;SDS011;6287;50.984;7.022;2023-04-24T12:46:04;6.23;;;3.10;;
12445;SDS011;6287;50.984;7.022;2023-04-24T12:48:30;5.07;;;2.60;;
12445;SDS011;6287;50.984;7.022;2023-04-24T12:51:00;4.43;;;2.67;;
12445;SDS011;6287;50.984;7.022;2023-04-24T12:53:28;4.13;;;2.40;;
12445;SDS011;6287;50.984;7.022;2023-04-24T12:55:56;4.47;;;2.03;;
12445;SDS011;6287;50.984;7.022;2023-04-24T12:58:22;3.73;;;2.53;;
12445;SDS011;6287;50.984;7.022;2023-04-24T13:00:50;2.70;;;2.50;;
12445;SDS011;6287;50.984;7.022;2023-04-24T13:03:16;6.53;;;2.67;;
12445;SDS011;6287;50.984;7.022;2023-04-24T13:05:42;5.07;;;2.20;;
12445;SDS011;6287;50.984;7.022;2023-04-24T13:08:11;3.40;;;2.20;;
12445;SDS011;6287;50.984;7.022;2023-04-24T13:10:40;3.63;;;1.77;;
12445;SDS011;6287;50.984;7.022;2023-04-24T13:13:06;2.43;;;1.83;;
12445;SDS011;6287;50.984;7.022;2023-04-24T13:15:32;4.40;;;2.23;;
12445;SDS011;6287;50.984;7.022;2023-04-24T13:18:02;2.23;;;1.77;;
12445;SDS011;6287;50.984;7.022;2023-04-24T13:20:28;4.30;;;2.00;;
12445;SDS011;6287;50.984;7.022;2023-04-24T13:22:56;5.03;;;2.10;;
12445;SDS011;6287;50.984;7.022;2023-04-24T13:25:23;2.63;;;1.87;;
12445;SDS011;6287;50.984;7.022;2023-04-24T13:27:49;3.03;;;1.87;;
12445;SDS011;6287;50.984;7.022;2023-04-24T13:30:17;5.17;;;1.90;;
12445;SDS011;6287;50.984;7.022;2023-04-24T13:32:45;3.00;;;2.13;;
12445;SDS011;6287;50.984;7.022;2023-04-24T13:35:11;3.57;;;2.13;;
12445;SDS011;6287;50.984;7.022;2023-04-24T13:37:39;1.73;;;1.63;;
12445;SDS011;6287;50.984;7.022;2023-04-24T13:40:07;2.40;;;2.20;;
12445;SDS011;6287;50.984;7.022;2023-04-24T13:42:36;4.10;;;1.93;;
12445;SDS011;6287;50.984;7.022;2023-04-24T13:45:01;5.57;;;2.30;;
12445;SDS011;6287;50.984;7.022;2023-04-24T13:47:28;5.13;;;1.83;;
12445;SDS011;6287;50.984;7.022;2023-04-24T13:49:54;2.20;;;1.60;;
12445;SDS011;6287;50.984;7.022;2023-04-24T13:52:19;1.90;;;1.57;;
12445;SDS011;6287;50.984;7.022;2023-04-24T13:54:50;2.90;;;1.90;;
12445;SDS011;6287;50.984;7.022;2023-04-24T13:57:15;2.13;;;1.77;;
12445;SDS011;6287;50.984;7.022;2023-04-24T13:59:43;1.50;;;1.20;;
12445;SDS011;6287;50.984;7.022;2023-04-24T14:02:10;2.03;;;1.80;;
12445;SDS011;6287;50.984;7.022;2023-04-24T14:04:41;2.60;;;1.67;;
12445;SDS011;6287;50.984;7.022;2023-04-24T14:07:08;2.70;;;1.70;;
12445;SDS011;6287;50.984;7.022;2023-04-24T14:09:34;3.13;;;1.53;;
12445;SDS011;6287;50.984;7.022;2023-04-24T14:12:00;1.90;;;1.43;;
12445;SDS011;6287;50.984;7.022;2023-04-24T14:14:27;4.13;;;2.20;;
12445;SDS011;6287;50.984;7.022;2023-04-24T14:16:57;1.57;;;1.40;;
12445;SDS011;6287;50.984;7.022;2023-04-24T14:19:23;2.00;;;1.80;;
12445;SDS011;6287;50.984;7.022;2023-04-24T14:21:51;2.77;;;1.67;;
12445;SDS011;6287;50.984;7.022;2023-04-24T14:24:17;2.20;;;1.57;;
12445;SDS011;6287;50.984;7.022;2023-04-24T14:26:42;2.87;;;1.77;;
12445;SDS011;6287;50.984;7.022;2023-04-24T14:29:10;4.07;;;1.90;;
12445;SDS011;6287;50.984;7.022;2023-04-24T14:31:36;2.23;;;1.80;;
12445;SDS011;6287;50.984;7.022;2023-04-24T14:34:01;3.60;;;1.80;;
12445;SDS011;6287;50.984;7.022;2023-04-24T14:36:27;1.47;;;1.37;;
12445;SDS011;6287;50.984;7.022;2023-04-24T14:38:55;1.73;;;1.50;;
12445;SDS011;6287;50.984;7.022;2023-04-24T14:41:25;3.43;;;1.97;;
12445;SDS011;6287;50.984;7.022;2023-04-24T14:43:54;2.63;;;2.20;;
12445;SDS011;6287;50.984;7.022;2023-04-24T14:46:19;2.17;;;1.97;;
12445;SDS011;6287;50.984;7.022;2023-04-24T14:48:50;2.05;;;1.80;;
12445;SDS011;6287;50.984;7.022;2023-04-24T14:51:15;2.40;;;1.70;;
12445;SDS011;6287;50.984;7.022;2023-04-24T14:53:41;6.03;;;1.70;;
12445;SDS011;6287;50.984;7.022;2023-04-24T14:56:07;2.47;;;1.87;;
12445;SDS011;6287;50.984;7.022;2023-04-24T14:58:35;1.77;;;1.63;;
12445;SDS011;6287;50.984;7.022;2023-04-24T15:01:01;2.27;;;1.53;;
12445;SDS011;6287;50.984;7.022;2023-04-24T15:03:30;1.83;;;1.70;;
12445;SDS011;6287;50.984;7.022;2023-04-24T15:05:59;3.20;;;1.83;;
12445;SDS011;6287;50.984;7.022;2023-04-24T15:08:27;6.27;;;1.80;;
12445;SDS011;6287;50.984;7.022;2023-04-24T15:10:53;2.17;;;1.53;;
12445;SDS011;6287;50.984;7.022;2023-04-24T15:13:18;2.07;;;1.50;;
12445;SDS011;6287;50.984;7.022;2023-04-24T15:15:45;1.90;;;1.70;;
12445;SDS011;6287;50.984;7.022;2023-04-24T15:18:14;1.60;;;1.50;;
12445;SDS011;6287;50.984;7.022;2023-04-24T15:20:40;2.37;;;1.53;;
12445;SDS011;6287;50.984;7.022;2023-04-24T15:23:07;1.97;;;1.20;;
12445;SDS011;6287;50.984;7.022;2023-04-24T15:25:37;1.80;;;1.30;;